AMAT2: Canadian River Nr Amarillo, TX

                                SHEF ID:       AMAT2     Canadian Rv nr Amarillo, TX
STATION TYPE:
Regulating: Stage = 13.00, Flow = 11994

PRECIP STAGE RIV-FLOW WTR-TEMP CONDUCT BAT-LOAD
in ft cfs F umho/cm volt
Ccp-Rev Ccp-Rev Ccp-Rev Ccp-Rev Ccp-Rev Ccp-Rev
(America/Chicago)
07/09 00:00 ---- 2.51 356 82.76 1 12.63
07/09 01:00 ---- 2.59 390 81.52 1 12.62
07/09 02:00 ---- 2.64 412 79.66 1 12.61
07/09 03:00 ---- 2.71 436 78.37 1 12.60
07/09 04:00 ---- 2.76 453 77.59 1 12.57
07/09 05:00 ---- 2.80 468 77.13 1 12.57
07/09 06:00 ---- 2.81 471 76.75 1 12.54
07/09 07:00 ---- 2.82 475 76.21 1 12.56
07/09 08:00 ---- 2.82 475 75.85 1 12.86
07/09 09:00 ---- 2.82 475 76.08 1 13.31
07/09 10:00 ---- 2.78 460 76.77 1 13.68
07/09 11:00 ---- 2.72 439 78.10 1 13.63
07/09 12:00 ---- 2.65 415 79.29 1 13.59
07/09 13:00 ---- 2.57 381 81.28 1 13.53
07/09 14:00 ---- 2.46 336 83.16 1 13.49
07/09 15:00 ---- 2.40 313 84.92 1 13.45
07/09 16:00 ---- 2.36 299 86.47 1 13.38
07/09 17:00 ---- 2.34 291 87.66 1 13.30
07/09 18:00 ---- 2.31 281 86.92 1 13.08
07/09 19:00 ---- 2.29 274 87.51 1 12.94
07/09 20:00 ---- 2.33 288 87.03 1 12.77
07/09 21:00 ---- 2.34 291 85.91 1 12.65
07/09 22:00 ---- 2.37 302 85.01 1 12.63
07/09 23:00 ---- 2.40 313 84.11 1 12.63
Data processed at Thu 10Jul2025 04:15 GMT

Parsing this webpage?

Checkout our new Data API! CWMSDataAPI (CDA)

Timeseries IDs (TSIDs)

TSIDs used from left to right in the data table
AMAR.Precip-Inc.Total.1Hour.1Hour.Ccp-Rev
AMAR.Stage.Inst.1Hour.0.Ccp-Rev
AMAR.Flow.Inst.1Hour.0.Ccp-Rev
AMAR.Temp-Water.Inst.1Hour.0.Ccp-Rev
AMAR.Cond-Water.Inst.1Hour.0.Ccp-Rev
AMAR.Volt-Battery Load.Inst.1Hour.0.Ccp-Rev

                            

All information presented herein is the property of the government of the United States of America and may be revised or deleted at any time without prior notice. Dissemination of this information without the expressed written consent of the Public Affairs Office, Tulsa District U.S. Army Corps of Engineers is strictly prohibited. These data are gathered electronically and, as presented, have NOT undergone any form of quality control. These data are NOT guaranteed to be valid or correct.